createdAt,value
2018-09-19T00:00:17.135Z,17.37
2018-09-19T00:01:27.033Z,17.26
2018-09-19T00:02:36.627Z,17.26
2018-09-19T00:03:46.760Z,17.25
2018-09-19T00:04:56.867Z,17.19
2018-09-19T00:06:06.196Z,17.21
2018-09-19T00:07:15.507Z,17.19
2018-09-19T00:08:25.623Z,17.21
2018-09-19T00:09:35.746Z,17.08
2018-09-19T00:10:45.590Z,17.08
2018-09-19T00:11:55.434Z,17.08
2018-09-19T00:13:05.288Z,17.06
2018-09-19T00:14:15.410Z,17.15
2018-09-19T00:15:25.540Z,17.14
2018-09-19T00:16:35.663Z,17.03
2018-09-19T00:17:45.790Z,17.12
2018-09-19T00:18:55.636Z,17.04
2018-09-19T00:20:05.878Z,17.04
2018-09-19T00:21:16.148Z,17.01
2018-09-19T00:22:26.098Z,17.08
2018-09-19T00:23:36.253Z,17
2018-09-19T00:24:46.116Z,17.08
2018-09-19T00:25:55.423Z,17
2018-09-19T00:27:05.548Z,17.04
2018-09-19T00:28:15.396Z,16.91
2018-09-19T00:29:25.242Z,17.04
2018-09-19T00:30:35.593Z,16.96
2018-09-19T00:31:45.165Z,16.98
2018-09-19T00:32:55.290Z,16.96
2018-09-19T00:34:05.412Z,16.94
2018-09-19T00:35:15.004Z,16.89
2018-09-19T00:36:24.864Z,16.93
2018-09-19T00:37:34.727Z,16.97
2018-09-19T00:38:44.819Z,16.97
2018-09-19T00:39:54.947Z,16.94
2018-09-19T00:41:04.802Z,16.98
2018-09-19T00:42:14.930Z,16.93
2018-09-19T00:43:24.513Z,16.94
2018-09-19T00:44:34.378Z,16.91
2018-09-19T00:45:44.537Z,16.97
2018-09-19T00:46:54.419Z,16.89
2018-09-19T00:48:04.053Z,16.83
2018-09-19T00:49:14.169Z,16.85
2018-09-19T00:50:23.808Z,16.88
2018-09-19T00:51:33.692Z,16.82
2018-09-19T00:52:43.813Z,16.86
2018-09-19T00:53:53.999Z,16.85
2018-09-19T00:55:03.580Z,16.81
2018-09-19T00:56:13.713Z,16.83
2018-09-19T00:57:23.562Z,16.7
2018-09-19T00:58:33.706Z,16.73
2018-09-19T00:59:43.290Z,16.68
2018-09-19T01:00:53.415Z,16.73
2018-09-19T01:02:03.582Z,16.75
2018-09-19T01:03:13.701Z,16.68
2018-09-19T01:04:23.562Z,16.73
2018-09-19T01:05:33.823Z,16.71
2018-09-19T01:06:43.677Z,16.7
2018-09-19T01:07:53.835Z,16.61
2018-09-19T01:09:03.676Z,16.67
2018-09-19T01:10:13.522Z,16.7
2018-09-19T01:11:23.375Z,16.71
2018-09-19T01:12:33.218Z,16.61
2018-09-19T01:13:42.796Z,16.67
2018-09-19T01:14:52.677Z,16.67
2018-09-19T01:16:02.520Z,16.56
2018-09-19T01:17:12.403Z,16.61
2018-09-19T01:18:22.527Z,16.46
2018-09-19T01:19:32.457Z,16.52
2018-09-19T01:20:42.306Z,16.41
2018-09-19T01:21:52.156Z,16.48
2018-09-19T01:23:02.285Z,16.56
2018-09-19T01:24:12.410Z,16.48
2018-09-19T01:25:21.981Z,16.43
2018-09-19T01:26:31.829Z,16.39
2018-09-19T01:27:41.949Z,16.38
2018-09-19T01:28:51.799Z,16.34
2018-09-19T01:30:01.705Z,16.27
2018-09-19T01:31:11.638Z,16.27
2018-09-19T01:32:21.211Z,16.23
2018-09-19T01:33:30.521Z,16.24
2018-09-19T01:34:40.651Z,16.27
2018-09-19T01:35:50.504Z,16.24
2018-09-19T01:37:00.348Z,16.12
2018-09-19T01:38:09.918Z,16.12
2018-09-19T01:39:20.029Z,16.11
2018-09-19T01:40:29.903Z,16.15
2018-09-19T01:41:39.815Z,16.05
2018-09-19T01:42:49.951Z,16.07
2018-09-19T01:43:59.794Z,16.01
2018-09-19T01:45:09.655Z,16.02
2018-09-19T01:46:19.229Z,16.02
2018-09-19T01:47:28.804Z,16.07
2018-09-19T01:48:38.112Z,16.09
2018-09-19T01:49:47.689Z,16.01
2018-09-19T01:50:57.805Z,15.96
2018-09-19T01:52:07.990Z,16.02
2018-09-19T01:53:17.892Z,16.04
2018-09-19T01:54:27.744Z,16
2018-09-19T01:55:37.325Z,15.96
2018-09-19T01:56:46.931Z,16.01
2018-09-19T01:57:56.516Z,16.07
2018-09-19T01:59:06.370Z,15.96
2018-09-19T02:00:16.271Z,16.02
2018-09-19T02:01:25.852Z,16.02
2018-09-19T02:02:35.697Z,15.96
2018-09-19T02:03:45.870Z,15.94
2018-09-19T02:04:55.735Z,16.02
2018-09-19T02:06:05.584Z,15.97
2018-09-19T02:07:15.429Z,15.93
2018-09-19T02:08:25.047Z,16
2018-09-19T02:09:34.913Z,15.93
2018-09-19T02:10:44.795Z,15.94
2018-09-19T02:11:54.979Z,15.93
2018-09-19T02:13:05.108Z,16.01
2018-09-19T02:14:14.949Z,15.89
2018-09-19T02:15:24.790Z,15.82
2018-09-19T02:16:34.979Z,15.93
2018-09-19T02:17:44.860Z,16.01
2018-09-19T02:18:54.729Z,15.94
2018-09-19T02:20:04.303Z,16.04
2018-09-19T02:21:13.893Z,15.94
2018-09-19T02:22:24.002Z,16.08
2018-09-19T02:23:33.885Z,16
2018-09-19T02:24:44.242Z,16.04
2018-09-19T02:25:54.097Z,16.01
2018-09-19T02:27:04.223Z,15.97
2018-09-19T02:28:14.347Z,15.97
2018-09-19T02:29:24.518Z,15.97
2018-09-19T02:30:34.680Z,16.07
2018-09-19T02:31:44.822Z,16
2018-09-19T02:32:54.742Z,16.05
2018-09-19T02:34:04.588Z,16.01
2018-09-19T02:35:14.793Z,16
2018-09-19T02:36:25.025Z,15.97
2018-09-19T02:37:34.865Z,16.05
2018-09-19T02:38:44.996Z,15.9
2018-09-19T02:39:54.845Z,15.93
2018-09-19T02:41:04.710Z,15.96
2018-09-19T02:42:14.566Z,15.96
2018-09-19T02:43:24.720Z,16
2018-09-19T02:44:34.583Z,15.96
2018-09-19T02:45:44.444Z,15.97
2018-09-19T02:46:54.579Z,15.97
2018-09-19T02:48:04.166Z,15.94
2018-09-19T02:49:14.300Z,15.93
2018-09-19T02:50:24.564Z,16
2018-09-19T02:51:34.376Z,15.94
2018-09-19T02:52:44.511Z,15.93
2018-09-19T02:53:54.132Z,16.01
2018-09-19T02:55:04.281Z,15.96
2018-09-19T02:56:14.140Z,15.9
2018-09-19T02:57:23.746Z,16
2018-09-19T02:58:33.599Z,15.93
2018-09-19T02:59:43.779Z,15.92
2018-09-19T03:00:53.903Z,15.93
2018-09-19T03:02:03.839Z,15.83
2018-09-19T03:03:12.871Z,15.87
2018-09-19T03:04:22.503Z,15.87
2018-09-19T03:05:32.625Z,15.78
2018-09-19T03:06:42.751Z,15.87
2018-09-19T03:07:52.607Z,15.86
2018-09-19T03:09:02.782Z,15.83
2018-09-19T03:10:12.648Z,15.8
2018-09-19T03:11:22.503Z,15.84
2018-09-19T03:12:32.372Z,15.8
2018-09-19T03:13:42.229Z,15.78
2018-09-19T03:14:52.094Z,15.87
2018-09-19T03:16:02.216Z,15.87
2018-09-19T03:17:12.079Z,15.87
2018-09-19T03:18:22.498Z,15.87
2018-09-19T03:19:32.356Z,15.84
2018-09-19T03:20:42.202Z,15.89
2018-09-19T03:21:52.052Z,15.87
2018-09-19T03:23:01.915Z,15.87
2018-09-19T03:24:11.823Z,15.86
2018-09-19T03:25:21.957Z,15.83
2018-09-19T03:26:32.089Z,15.84
2018-09-19T03:27:41.423Z,15.87
2018-09-19T03:28:51.552Z,15.86
2018-09-19T03:30:01.391Z,15.84
2018-09-19T03:31:10.988Z,15.82
2018-09-19T03:32:21.157Z,15.76
2018-09-19T03:33:30.716Z,15.83
2018-09-19T03:34:40.868Z,15.83
2018-09-19T03:35:50.443Z,15.87
2018-09-19T03:37:00.283Z,15.83
2018-09-19T03:38:10.475Z,15.86
2018-09-19T03:39:20.613Z,15.87
2018-09-19T03:40:30.539Z,15.87
2018-09-19T03:41:40.412Z,15.82
2018-09-19T03:42:50.300Z,15.9
2018-09-19T03:43:59.881Z,15.83
2018-09-19T03:45:09.468Z,15.83
2018-09-19T03:46:19.327Z,15.84
2018-09-19T03:47:29.189Z,15.78
2018-09-19T03:48:39.573Z,15.89
2018-09-19T03:49:49.445Z,15.84
2018-09-19T03:50:59.308Z,15.82
2018-09-19T03:52:09.147Z,15.9
2018-09-19T03:53:18.729Z,15.87
2018-09-19T03:54:28.299Z,15.84
2018-09-19T03:55:37.777Z,15.87
2018-09-19T03:56:47.637Z,15.82
2018-09-19T03:57:57.848Z,15.87
2018-09-19T03:59:07.833Z,15.87
2018-09-19T04:00:17.682Z,15.87
2018-09-19T04:01:27.821Z,15.87
2018-09-19T04:02:37.669Z,15.89
2018-09-19T04:03:47.871Z,15.83
2018-09-19T04:04:57.487Z,15.86
2018-09-19T04:06:07.061Z,15.92
2018-09-19T04:07:16.637Z,15.92
2018-09-19T04:08:26.801Z,15.86
2018-09-19T04:09:36.656Z,15.86
2018-09-19T04:10:46.226Z,15.86
2018-09-19T04:11:56.081Z,15.82
2018-09-19T04:13:05.978Z,15.82
2018-09-19T04:14:15.881Z,15.89
2018-09-19T04:15:26.010Z,15.87
2018-09-19T04:16:36.354Z,15.92
2018-09-19T04:17:46.292Z,15.8
2018-09-19T04:18:56.395Z,15.84
2018-09-19T04:20:06.272Z,15.84
2018-09-19T04:21:16.426Z,15.82
2018-09-19T04:22:26.010Z,15.82
2018-09-19T04:23:35.868Z,15.78
2018-09-19T04:24:45.993Z,15.78
2018-09-19T04:25:55.834Z,15.78
2018-09-19T04:27:05.944Z,15.75
2018-09-19T04:28:16.133Z,15.68
2018-09-19T04:29:26.485Z,15.69
2018-09-19T04:30:36.295Z,15.67
2018-09-19T04:31:46.408Z,15.72
2018-09-19T04:32:56.541Z,15.72
2018-09-19T04:34:06.407Z,15.69
2018-09-19T04:35:16.260Z,15.68
2018-09-19T04:36:26.110Z,15.65
2018-09-19T04:37:36.018Z,15.65
2018-09-19T04:38:46.165Z,15.67
2018-09-19T04:39:55.734Z,15.67
2018-09-19T04:41:05.322Z,15.62
2018-09-19T04:42:15.145Z,15.64
2018-09-19T04:43:25.004Z,15.56
2018-09-19T04:44:34.620Z,15.56
2018-09-19T04:45:44.481Z,15.56
2018-09-19T04:46:54.615Z,15.6
2018-09-19T04:48:04.459Z,15.56
2018-09-19T04:49:14.601Z,15.54
2018-09-19T04:50:24.741Z,15.5
2018-09-19T04:51:34.957Z,15.5
2018-09-19T04:52:44.896Z,15.49
2018-09-19T04:53:54.789Z,15.49
2018-09-19T04:55:04.363Z,15.53
2018-09-19T04:56:14.503Z,15.47
2018-09-19T04:57:24.409Z,15.43
2018-09-19T04:58:34.274Z,15.39
2018-09-19T04:59:44.133Z,15.35
2018-09-19T05:00:53.975Z,15.43
2018-09-19T05:02:03.562Z,15.43
2018-09-19T05:03:13.413Z,15.38
2018-09-19T05:04:22.752Z,15.41
2018-09-19T05:05:32.375Z,15.38
2018-09-19T05:06:42.041Z,15.44
2018-09-19T05:07:52.151Z,15.38
2018-09-19T05:09:01.744Z,15.39
2018-09-19T05:10:11.892Z,15.46
2018-09-19T05:11:22.228Z,15.36
2018-09-19T05:12:32.575Z,15.5
2018-09-19T05:13:41.869Z,15.43
2018-09-19T05:14:51.476Z,15.43
2018-09-19T05:16:01.321Z,15.44
2018-09-19T05:17:10.906Z,15.44
2018-09-19T05:18:20.242Z,15.35
2018-09-19T05:19:30.147Z,15.44
2018-09-19T05:20:39.732Z,15.43
2018-09-19T05:21:49.855Z,15.44
2018-09-19T05:22:59.427Z,15.39
2018-09-19T05:24:09.010Z,15.44
2018-09-19T05:25:18.582Z,15.41
2018-09-19T05:26:28.763Z,15.38
2018-09-19T05:27:38.621Z,15.38
2018-09-19T05:28:48.730Z,15.41
2018-09-19T05:29:58.312Z,15.36
2018-09-19T05:31:08.448Z,15.43
2018-09-19T05:32:18.290Z,15.43
2018-09-19T05:33:28.135Z,15.39
2018-09-19T05:34:37.984Z,15.41
2018-09-19T05:35:47.833Z,15.35
2018-09-19T05:36:57.405Z,15.43
2018-09-19T05:38:06.989Z,15.41
2018-09-19T05:39:17.112Z,15.47
2018-09-19T05:40:27.233Z,15.38
2018-09-19T05:41:36.815Z,15.43
2018-09-19T05:42:46.128Z,15.38
2018-09-19T05:43:56.236Z,15.41
2018-09-19T05:45:06.086Z,15.46
2018-09-19T05:46:16.370Z,15.38
2018-09-19T05:47:26.651Z,15.47
2018-09-19T05:48:37.002Z,15.53
2018-09-19T05:49:46.887Z,15.51
2018-09-19T05:50:56.741Z,15.47
2018-09-19T05:52:06.319Z,15.51
2018-09-19T05:53:16.434Z,15.5
2018-09-19T05:54:26.461Z,15.53
2018-09-19T05:55:36.433Z,15.54
2018-09-19T05:56:46.569Z,15.57
2018-09-19T05:57:56.418Z,15.54
2018-09-19T05:59:06.056Z,15.56
2018-09-19T06:00:15.638Z,15.64
2018-09-19T06:01:25.857Z,15.65
2018-09-19T06:02:35.764Z,15.69
2018-09-19T06:03:45.904Z,15.59
2018-09-19T06:04:56.164Z,15.68
2018-09-19T06:06:06.648Z,15.78
2018-09-19T06:07:16.795Z,15.68
2018-09-19T06:08:26.911Z,15.65
2018-09-19T06:09:36.756Z,15.74
2018-09-19T06:10:46.608Z,15.68
2018-09-19T06:11:56.463Z,15.74
2018-09-19T06:13:06.741Z,15.82
2018-09-19T06:14:16.626Z,15.78
2018-09-19T06:15:26.771Z,15.76
2018-09-19T06:16:37.375Z,15.84
2018-09-19T06:17:47.233Z,15.76
2018-09-19T06:18:57.087Z,15.83
2018-09-19T06:20:07.206Z,15.84
2018-09-19T06:21:17.055Z,15.76
2018-09-19T06:22:26.947Z,15.82
2018-09-19T06:23:36.810Z,15.82
2018-09-19T06:24:46.653Z,15.89
2018-09-19T06:25:56.234Z,15.84
2018-09-19T06:27:06.064Z,15.86
2018-09-19T06:28:16.096Z,15.82
2018-09-19T06:29:25.943Z,15.86
2018-09-19T06:30:36.064Z,15.89
2018-09-19T06:31:46.195Z,15.86
2018-09-19T06:32:56.401Z,15.92
2018-09-19T06:34:07.022Z,15.96
2018-09-19T06:35:17.146Z,15.93
2018-09-19T06:36:26.994Z,15.97
2018-09-19T06:37:37.154Z,15.97
2018-09-19T06:38:46.755Z,16
2018-09-19T06:39:56.985Z,16.01
2018-09-19T06:41:07.269Z,15.97
2018-09-19T06:42:17.122Z,16.05
2018-09-19T06:43:26.696Z,15.93
2018-09-19T06:44:36.546Z,16.14
2018-09-19T06:45:46.690Z,16.23
2018-09-19T06:46:56.503Z,16.23
2018-09-19T06:48:06.598Z,16.21
2018-09-19T06:49:16.480Z,16.25
2018-09-19T06:50:26.338Z,16.35
2018-09-19T06:51:36.191Z,16.31
2018-09-19T06:52:45.775Z,16.39
2018-09-19T06:53:55.903Z,16.43
2018-09-19T06:55:06.069Z,16.48
2018-09-19T06:56:16.194Z,16.53
2018-09-19T06:57:26.049Z,16.6
2018-09-19T06:58:35.368Z,16.6
2018-09-19T06:59:45.390Z,16.61
2018-09-19T07:00:55.838Z,16.73
2018-09-19T07:02:05.718Z,16.71
2018-09-19T07:03:15.620Z,16.76
2018-09-19T07:04:25.500Z,16.78
2018-09-19T07:05:35.358Z,16.81
2018-09-19T07:06:44.996Z,16.88
2018-09-19T07:07:54.844Z,16.89
2018-09-19T07:09:04.700Z,16.86
2018-09-19T07:10:14.275Z,16.86
2018-09-19T07:11:24.399Z,16.91
2018-09-19T07:12:34.520Z,16.96
2018-09-19T07:13:44.367Z,16.98
2018-09-19T07:14:54.765Z,17.03
2018-09-19T07:16:04.604Z,16.98
2018-09-19T07:17:14.727Z,17.01
2018-09-19T07:18:24.578Z,17.06
2018-09-19T07:19:33.909Z,17.08
2018-09-19T07:20:44.030Z,17.12
2018-09-19T07:21:53.870Z,17.19
2018-09-19T07:23:03.450Z,17.15
2018-09-19T07:24:13.367Z,17.16
2018-09-19T07:25:22.904Z,17.19
2018-09-19T07:26:32.544Z,17.18
2018-09-19T07:27:42.143Z,17.3
2018-09-19T07:28:52.259Z,17.37
2018-09-19T07:30:01.820Z,17.36
2018-09-19T07:31:12.344Z,17.38
2018-09-19T07:32:21.682Z,17.41
2018-09-19T07:33:30.987Z,17.46
2018-09-19T07:34:41.181Z,17.52
2018-09-19T07:35:51.376Z,17.55
2018-09-19T07:37:01.489Z,17.56
2018-09-19T07:38:11.334Z,17.56
2018-09-19T07:39:20.989Z,17.68
2018-09-19T07:40:30.774Z,17.79
2018-09-19T07:41:40.640Z,17.75
2018-09-19T07:42:50.482Z,17.84
2018-09-19T07:44:00.337Z,17.96
2018-09-19T07:45:09.954Z,18
2018-09-19T07:46:19.797Z,18
2018-09-19T07:47:29.550Z,18.02
2018-09-19T07:48:39.137Z,18.08
2018-09-19T07:49:48.994Z,18.14
2018-09-19T07:50:58.864Z,18.15
2018-09-19T07:52:08.484Z,18.14
2018-09-19T07:53:18.336Z,18.14
2018-09-19T07:54:28.270Z,18.33
2018-09-19T07:55:38.585Z,18.33
2018-09-19T07:56:48.541Z,18.36
2018-09-19T07:57:58.471Z,18.39
2018-09-19T07:59:08.604Z,18.54
2018-09-19T08:00:18.475Z,18.42
2018-09-19T08:01:28.347Z,18.5
2018-09-19T08:02:38.483Z,18.52
2018-09-19T08:03:48.613Z,18.44
2018-09-19T08:04:58.192Z,18.58
2018-09-19T08:06:08.082Z,18.6
2018-09-19T08:07:17.940Z,18.62
2018-09-19T08:08:27.521Z,18.65
2018-09-19T08:09:37.368Z,18.6
2018-09-19T08:10:47.224Z,18.76
2018-09-19T08:11:57.088Z,18.8
2018-09-19T08:13:06.967Z,18.84
2018-09-19T08:14:16.819Z,18.85
2018-09-19T08:15:26.986Z,18.81
2018-09-19T08:16:36.572Z,18.85
2018-09-19T08:17:46.749Z,18.95
2018-09-19T08:18:56.935Z,18.92
2018-09-19T08:20:06.532Z,18.98
2018-09-19T08:21:16.655Z,19
2018-09-19T08:22:26.276Z,19.02
2018-09-19T08:23:36.517Z,19.1
2018-09-19T08:24:46.704Z,19.06
2018-09-19T08:25:56.551Z,19.19
2018-09-19T08:27:06.405Z,19.16
2018-09-19T08:28:16.548Z,19.23
2018-09-19T08:29:26.392Z,19.29
2018-09-19T08:30:36.256Z,19.32
2018-09-19T08:31:46.106Z,19.39
2018-09-19T08:32:56.271Z,19.55
2018-09-19T08:34:06.366Z,19.54
2018-09-19T08:35:16.485Z,19.63
2018-09-19T08:36:26.394Z,19.58
2018-09-19T08:37:35.978Z,19.71
2018-09-19T08:38:46.095Z,19.71
2018-09-19T08:39:56.228Z,19.78
2018-09-19T08:41:06.111Z,19.73
2018-09-19T08:42:16.234Z,19.77
2018-09-19T08:43:25.827Z,19.83
2018-09-19T08:44:35.964Z,19.86
2018-09-19T08:45:45.273Z,19.86
2018-09-19T08:46:54.863Z,20.11
2018-09-19T08:48:04.721Z,20.1
2018-09-19T08:49:14.057Z,20.02
2018-09-19T08:50:23.918Z,20.1
2018-09-19T08:51:33.913Z,20.14
2018-09-19T08:52:43.502Z,20.1
2018-09-19T08:53:53.358Z,20.16
2018-09-19T08:55:03.205Z,20.26
2018-09-19T08:56:13.068Z,20.32
2018-09-19T08:57:22.972Z,20.24
2018-09-19T08:58:33.148Z,20.28
2018-09-19T08:59:43.323Z,20.36
2018-09-19T09:00:53.179Z,20.33
2018-09-19T09:02:03.028Z,20.31
2018-09-19T09:03:13.209Z,20.35
2018-09-19T09:04:23.352Z,20.48
2018-09-19T09:05:33.658Z,20.69
2018-09-19T09:06:43.818Z,20.7
2018-09-19T09:07:54.014Z,20.72
2018-09-19T09:09:04.158Z,20.79
2018-09-19T09:10:13.750Z,20.77
2018-09-19T09:11:23.384Z,20.74
2018-09-19T09:12:33.037Z,20.89
2018-09-19T09:13:43.403Z,20.91
2018-09-19T09:14:53.538Z,20.99
2018-09-19T09:16:03.127Z,21.04
2018-09-19T09:17:13.307Z,21.14
2018-09-19T09:18:23.443Z,21.1
2018-09-19T09:19:32.753Z,21.13
2018-09-19T09:20:42.341Z,21.34
2018-09-19T09:21:51.711Z,21.47
2018-09-19T09:23:01.565Z,21.44
2018-09-19T09:24:11.138Z,21.44
2018-09-19T09:25:21.004Z,21.37
2018-09-19T09:26:31.139Z,21.35
2018-09-19T09:27:41.062Z,21.32
2018-09-19T09:28:50.941Z,21.44
2018-09-19T09:30:00.805Z,21.43
2018-09-19T09:31:10.796Z,21.44
2018-09-19T09:32:20.930Z,21.49
2018-09-19T09:33:30.248Z,21.53
2018-09-19T09:34:40.099Z,21.58
2018-09-19T09:35:49.412Z,21.64
2018-09-19T09:36:58.736Z,21.8
2018-09-19T09:38:08.329Z,21.84
2018-09-19T09:39:18.248Z,21.75
2018-09-19T09:40:28.581Z,21.75
2018-09-19T09:41:38.735Z,21.74
2018-09-19T09:42:48.606Z,21.65
2018-09-19T09:43:58.548Z,21.8
2018-09-19T09:45:08.413Z,21.91
2018-09-19T09:46:17.994Z,22.05
2018-09-19T09:47:28.177Z,22.02
2018-09-19T09:48:37.752Z,21.98
2018-09-19T09:49:47.342Z,22
2018-09-19T09:50:57.457Z,22.05
2018-09-19T09:52:07.337Z,22.1
2018-09-19T09:53:17.718Z,21.99
2018-09-19T09:54:27.790Z,22.07
2018-09-19T09:55:37.911Z,22.09
2018-09-19T09:56:48.061Z,22.12
2018-09-19T09:57:58.462Z,22.21
2018-09-19T09:59:08.046Z,22.27
2018-09-19T10:00:18.165Z,22.36
2018-09-19T10:01:28.297Z,22.45
2018-09-19T10:02:37.869Z,22.49
2018-09-19T10:03:47.765Z,22.68
2018-09-19T10:04:57.611Z,22.76
2018-09-19T10:06:07.735Z,22.75
2018-09-19T10:07:17.589Z,22.83
2018-09-19T10:08:27.447Z,22.85
2018-09-19T10:09:36.751Z,22.97
2018-09-19T10:10:46.596Z,22.88
2018-09-19T10:11:56.730Z,22.83
2018-09-19T10:13:06.845Z,22.86
2018-09-19T10:14:16.423Z,22.94
2018-09-19T10:15:26.306Z,22.95
2018-09-19T10:16:35.870Z,22.97
2018-09-19T10:17:46.022Z,23.04
2018-09-19T10:18:56.154Z,23
2018-09-19T10:20:06.030Z,23.02
2018-09-19T10:21:16.149Z,23.17
2018-09-19T10:22:26.006Z,23.19
2018-09-19T10:23:36.119Z,23.19
2018-09-19T10:24:45.969Z,23.19
2018-09-19T10:25:55.545Z,23.19
2018-09-19T10:27:05.132Z,23.35
2018-09-19T10:28:15.252Z,23.19
2018-09-19T10:29:25.150Z,23.36
2018-09-19T10:30:34.774Z,23.39
2018-09-19T10:31:44.627Z,23.36
2018-09-19T10:32:54.208Z,23.4
2018-09-19T10:34:03.785Z,23.5
2018-09-19T10:35:13.425Z,23.51
2018-09-19T10:36:23.703Z,23.39
2018-09-19T10:37:33.562Z,23.55
2018-09-19T10:38:43.150Z,23.57
2018-09-19T10:39:52.992Z,23.58
2018-09-19T10:41:03.110Z,23.63
2018-09-19T10:42:12.989Z,23.68
2018-09-19T10:43:23.104Z,23.83
2018-09-19T10:44:32.737Z,23.85
2018-09-19T10:45:42.876Z,24.02
2018-09-19T10:46:52.724Z,24.05
2018-09-19T10:48:02.841Z,24.09
2018-09-19T10:49:12.421Z,24.06
2018-09-19T10:50:22.556Z,24.09
2018-09-19T10:51:32.677Z,24.08
2018-09-19T10:52:42.533Z,24.08
2018-09-19T10:53:52.648Z,24.08
2018-09-19T10:55:02.494Z,24.18
2018-09-19T10:56:12.356Z,24.27
2018-09-19T10:57:22.212Z,24.2
2018-09-19T10:58:31.524Z,24.39
2018-09-19T10:59:41.374Z,24.37
2018-09-19T11:00:51.253Z,24.43
2018-09-19T11:02:01.364Z,24.42
2018-09-19T11:03:10.942Z,24.5
2018-09-19T11:04:21.063Z,24.53
2018-09-19T11:05:30.642Z,24.47
2018-09-19T11:06:40.760Z,24.55
2018-09-19T11:07:50.880Z,24.52
2018-09-19T11:09:00.458Z,24.52
2018-09-19T11:10:10.086Z,24.61
2018-09-19T11:11:20.237Z,24.53
2018-09-19T11:12:30.111Z,24.53
2018-09-19T11:13:40.225Z,24.53
2018-09-19T11:14:50.074Z,24.52
2018-09-19T11:15:59.915Z,24.62
2018-09-19T11:17:09.959Z,24.77
2018-09-19T11:18:19.884Z,24.81
2018-09-19T11:19:29.737Z,24.84
2018-09-19T11:20:39.315Z,24.78
2018-09-19T11:21:49.165Z,24.84
2018-09-19T11:22:59.037Z,24.8
2018-09-19T11:24:08.615Z,24.85
2018-09-19T11:25:18.504Z,24.87
2018-09-19T11:26:28.727Z,24.81
2018-09-19T11:27:38.644Z,24.85
2018-09-19T11:28:48.496Z,24.87
2018-09-19T11:29:58.615Z,24.88
2018-09-19T11:31:08.463Z,24.87
2018-09-19T11:32:18.035Z,24.91
2018-09-19T11:33:27.638Z,25
2018-09-19T11:34:37.782Z,25.08
2018-09-19T11:35:47.900Z,25.08
2018-09-19T11:36:57.741Z,25.15
2018-09-19T11:38:07.820Z,25.09
2018-09-19T11:39:17.670Z,25.13
2018-09-19T11:40:27.256Z,25.09
2018-09-19T11:41:36.823Z,25.06
2018-09-19T11:42:46.963Z,25.1
2018-09-19T11:43:56.536Z,25.14
2018-09-19T11:45:06.115Z,25.27
2018-09-19T11:46:16.240Z,25.24
2018-09-19T11:47:26.358Z,25.2
2018-09-19T11:48:36.010Z,25.25
2018-09-19T11:49:45.962Z,25.35
2018-09-19T11:50:56.136Z,25.39
2018-09-19T11:52:05.986Z,25.39
2018-09-19T11:53:15.302Z,25.54
2018-09-19T11:54:25.433Z,25.5
2018-09-19T11:55:35.549Z,25.5
2018-09-19T11:56:45.141Z,25.54
2018-09-19T11:57:55.045Z,25.61
2018-09-19T11:59:04.972Z,25.7
2018-09-19T12:00:15.133Z,25.8
2018-09-19T12:01:25.008Z,25.92
2018-09-19T12:02:34.599Z,26.02
2018-09-19T12:03:44.455Z,25.99
2018-09-19T12:04:54.302Z,26.07
2018-09-19T12:06:04.417Z,26.15
2018-09-19T12:07:14.081Z,26.2
2018-09-19T12:08:23.611Z,26.26
2018-09-19T12:09:32.688Z,26.25
2018-09-19T12:10:42.546Z,26.29
2018-09-19T12:11:52.141Z,26.39
2018-09-19T12:13:01.991Z,26.44
2018-09-19T12:14:11.948Z,26.5
2018-09-19T12:15:21.263Z,26.47
2018-09-19T12:16:30.840Z,26.33
2018-09-19T12:17:40.955Z,26.23
2018-09-19T12:18:50.808Z,26.33
2018-09-19T12:20:00.922Z,26.25
2018-09-19T12:21:10.779Z,26.12
2018-09-19T12:22:20.627Z,26.32
2018-09-19T12:23:30.211Z,26.3
2018-09-19T12:24:40.062Z,26.26
2018-09-19T12:25:49.796Z,26.3
2018-09-19T12:26:59.377Z,26.25
2018-09-19T12:28:08.964Z,26.48
2018-09-19T12:29:18.268Z,26.55
2018-09-19T12:30:27.887Z,26.7
2018-09-19T12:31:37.472Z,26.72
2018-09-19T12:32:47.593Z,26.69
2018-09-19T12:33:57.677Z,26.66
2018-09-19T12:35:07.296Z,26.75
2018-09-19T12:36:17.147Z,26.75
2018-09-19T12:37:27.053Z,26.81
2018-09-19T12:38:36.898Z,26.8
2018-09-19T12:39:46.896Z,26.92
2018-09-19T12:40:57.014Z,26.81
2018-09-19T12:42:06.903Z,26.84
2018-09-19T12:43:16.800Z,26.8
2018-09-19T12:44:26.378Z,26.81
2018-09-19T12:45:35.960Z,26.75
2018-09-19T12:46:46.111Z,26.67
2018-09-19T12:47:55.963Z,26.52
2018-09-19T12:49:05.416Z,26.62
2018-09-19T12:50:15.478Z,26.57
2018-09-19T12:51:25.110Z,26.5
2018-09-19T12:52:34.418Z,26.47
2018-09-19T12:53:43.993Z,26.47
2018-09-19T12:54:54.156Z,26.52
2018-09-19T12:56:03.478Z,26.6
2018-09-19T12:57:13.603Z,26.6
2018-09-19T12:58:23.463Z,26.57
2018-09-19T12:59:33.595Z,26.73
2018-09-19T13:00:43.443Z,26.63
2018-09-19T13:01:53.054Z,26.67
2018-09-19T13:03:02.932Z,26.65
2018-09-19T13:04:12.812Z,26.72
2018-09-19T13:05:22.397Z,26.65
2018-09-19T13:06:32.519Z,26.72
2018-09-19T13:07:42.132Z,26.7
2018-09-19T13:08:52.386Z,26.8
2018-09-19T13:10:01.986Z,26.82
2018-09-19T13:11:11.341Z,26.8
2018-09-19T13:12:21.244Z,26.7
2018-09-19T13:13:31.103Z,26.58
2018-09-19T13:14:40.676Z,26.7
2018-09-19T13:15:50.797Z,26.63
2018-09-19T13:17:00.647Z,26.69
2018-09-19T13:18:10.775Z,26.76
2018-09-19T13:19:20.674Z,26.82
2018-09-19T13:20:30.809Z,26.77
2018-09-19T13:21:40.685Z,26.76
2018-09-19T13:22:50.308Z,26.87
2018-09-19T13:24:00.163Z,26.92
2018-09-19T13:25:09.496Z,26.84
2018-09-19T13:26:19.346Z,26.81
2018-09-19T13:27:29.475Z,26.92
2018-09-19T13:28:39.345Z,26.95
2018-09-19T13:29:49.251Z,27.02
2018-09-19T13:30:59.097Z,27.19
2018-09-19T13:32:08.675Z,27.32
2018-09-19T13:33:18.529Z,27.32
2018-09-19T13:34:28.118Z,27.36
2018-09-19T13:35:38.005Z,27.32
2018-09-19T13:36:47.851Z,27.34
2018-09-19T13:37:57.906Z,27.41
2018-09-19T13:39:07.745Z,27.4
2018-09-19T13:40:17.055Z,27.36
2018-09-19T13:41:26.912Z,27.32
2018-09-19T13:42:37.032Z,27.41
2018-09-19T13:43:47.151Z,27.44
2018-09-19T13:44:56.729Z,27.49
2018-09-19T13:46:06.844Z,27.67
2018-09-19T13:47:16.455Z,27.74
2018-09-19T13:48:26.033Z,27.84
2018-09-19T13:49:36.153Z,27.78
2018-09-19T13:50:46.000Z,27.7
2018-09-19T13:51:55.039Z,27.69
2018-09-19T13:53:04.349Z,27.46
2018-09-19T13:54:13.655Z,27.47
2018-09-19T13:55:23.548Z,27.51
2018-09-19T13:56:33.131Z,27.43
2018-09-19T13:57:43.321Z,27.46
2018-09-19T13:58:53.293Z,27.47
2018-09-19T14:00:03.529Z,27.67
2018-09-19T14:01:13.381Z,27.69
2018-09-19T14:02:22.960Z,27.84
2018-09-19T14:03:32.849Z,27.88
2018-09-19T14:04:42.708Z,28.15
2018-09-19T14:05:52.552Z,28.24
2018-09-19T14:07:02.453Z,28.25
2018-09-19T14:08:12.585Z,28.33
2018-09-19T14:09:22.165Z,28.34
2018-09-19T14:10:32.288Z,28.43
2018-09-19T14:11:42.590Z,28.4
2018-09-19T14:12:52.994Z,28.44
2018-09-19T14:14:02.577Z,28.41
2018-09-19T14:15:12.167Z,28.56
2018-09-19T14:16:22.034Z,28.68
2018-09-19T14:17:31.935Z,28.76
2018-09-19T14:18:42.063Z,28.86
2018-09-19T14:19:51.652Z,28.8
2018-09-19T14:21:01.237Z,28.74
2018-09-19T14:22:11.142Z,28.74
2018-09-19T14:23:21.273Z,28.71
2018-09-19T14:24:30.590Z,28.74
2018-09-19T14:25:40.444Z,28.81
2018-09-19T14:26:50.036Z,28.88
2018-09-19T14:28:00.230Z,28.78
2018-09-19T14:29:09.820Z,28.7
2018-09-19T14:30:19.440Z,28.59
2018-09-19T14:31:29.567Z,28.54
2018-09-19T14:32:39.705Z,28.55
2018-09-19T14:33:49.574Z,28.51
2018-09-19T14:34:59.434Z,28.55
2018-09-19T14:36:09.297Z,28.33
2018-09-19T14:37:19.157Z,28.34
2018-09-19T14:38:29.290Z,28.24
2018-09-19T14:39:39.426Z,28.22
2018-09-19T14:40:49.549Z,28.15
2018-09-19T14:41:59.399Z,28.04
2018-09-19T14:43:08.987Z,28.04
2018-09-19T14:44:18.840Z,28.07
2018-09-19T14:45:28.977Z,28.07
2018-09-19T14:46:38.825Z,27.9
2018-09-19T14:47:48.702Z,27.9
2018-09-19T14:48:59.142Z,27.69
2018-09-19T14:50:09.065Z,27.78
2018-09-19T14:51:18.964Z,27.84
2018-09-19T14:52:28.549Z,27.79
2018-09-19T14:53:38.129Z,27.84
2018-09-19T14:54:47.980Z,27.81
2018-09-19T14:55:57.594Z,27.7
2018-09-19T14:57:07.447Z,27.67
2018-09-19T14:58:16.769Z,27.67
2018-09-19T14:59:26.617Z,27.72
2018-09-19T15:00:35.928Z,27.66
2018-09-19T15:01:45.748Z,27.72
2018-09-19T15:02:55.596Z,27.67
2018-09-19T15:04:04.909Z,27.78